Darstellungsparameter: Aktuell verwendete Einstellungen:
Skalierung der Graphiken ... ?
xyx+y,   Skalierungsfaktor:      Skalierung: Modus: x, Faktor: 1
Darstellungszeitraum ... ?
Vom - - bis: - -   Zeitraum: 30.12.2021 - 30.12.2021
Min/Max/Avg-Anzeige ... ?
Zeige MMA aktuell
Zeige MMA Monat
Zeige MMA alles
Zeige --A aktuell
Zeige --A Monat
Zeige --A alles
Keine MMA-Anzeige
MMA:
Keine MMA-Graphiken
MMA-Basis: 30.12.2021 - 30.12.2021
Quicknavigation für Darstellung... ?
Tage:      1T, 2T, 3T, 5T -1T -2T -3T -5T +1T +2T +3T +5T
Wochen: 1W, 2W, 3W -1W -2W -3W +1W +2W +3W
Monate: 1M, 3M, 6M -1M -3M -6M +1M +3M +6M
Jahre:    1J, 3J, 5J, 10J -1J -3J -5J -10J +1J +3J +5J +10J
Nutze für die Darstellung ... ?
Originaldaten oder Mittelwerte auf ...
Stundenbasis Tagesbasis Wochenbasis
Monatsbasis Jahresbasis      Datenbasis: Original-Daten
Darstellen als:
Statistik (Auto) Statistik J:M      Darstellung:
Zur Graphik,    zurück zur Übersicht aller Sensoren.
 
Tabellarische Datenbersicht: ?
 
Sensor: Nr:Datum:Temp:Feuchte:Taupunkt:
Aussen-T/F 1 30-12-2021 00:00:00 11.3 C 95 % 10.53 C
2 30-12-2021 00:05:00 11.2 C 95 % 10.43 C
3 30-12-2021 00:10:00 11.3 C 95 % 10.53 C
4 30-12-2021 00:15:00 11.2 C 95 % 10.43 C
5 30-12-2021 00:20:00 11.2 C 95 % 10.43 C
6 30-12-2021 00:25:00 11.2 C 95 % 10.43 C
7 30-12-2021 00:30:00 11.1 C 95 % 10.33 C
8 30-12-2021 00:35:00 11.1 C 95 % 10.33 C
9 30-12-2021 00:40:00 11.1 C 95 % 10.33 C
10 30-12-2021 00:45:00 11.1 C 95 % 10.33 C
11 30-12-2021 00:50:00 11.1 C 95 % 10.33 C
12 30-12-2021 00:55:00 11 C 95 % 10.23 C
13 30-12-2021 01:00:00 11 C 95 % 10.23 C
14 30-12-2021 01:05:00 11 C 95 % 10.23 C
15 30-12-2021 01:10:00 11 C 95 % 10.23 C
16 30-12-2021 01:15:00 10.9 C 95 % 10.13 C
17 30-12-2021 01:20:00 10.8 C 95 % 10.03 C
18 30-12-2021 01:25:00 10.8 C 95 % 10.03 C
19 30-12-2021 01:30:00 10.7 C 95 % 9.93 C
20 30-12-2021 01:35:00 10.7 C 95 % 9.93 C
21 30-12-2021 01:40:00 10.6 C 95 % 9.83 C
22 30-12-2021 01:45:00 10.5 C 95 % 9.73 C
23 30-12-2021 01:50:00 10.4 C 95 % 9.63 C
24 30-12-2021 01:55:00 10.4 C 95 % 9.63 C
25 30-12-2021 02:00:00 10.3 C 95 % 9.54 C
Sensor: Nr:Datum:Temp:Feuchte:Taupunkt:
Aussen-T/F 26 30-12-2021 02:05:00 10.3 C 95 % 9.54 C
27 30-12-2021 02:10:00 10.2 C 95 % 9.44 C
28 30-12-2021 02:15:00 10.1 C 95 % 9.34 C
29 30-12-2021 02:20:00 10.1 C 95 % 9.34 C
30 30-12-2021 02:25:00 10.1 C 95 % 9.34 C
31 30-12-2021 02:30:00 10.1 C 95 % 9.34 C
32 30-12-2021 02:35:00 10.1 C 95 % 9.34 C
33 30-12-2021 02:40:00 10 C 95 % 9.24 C
34 30-12-2021 02:45:00 9.9 C 95 % 9.14 C
35 30-12-2021 02:50:00 9.8 C 95 % 9.04 C
36 30-12-2021 02:55:00 9.7 C 95 % 8.94 C
37 30-12-2021 03:00:00 9.5 C 94 % 8.58 C
38 30-12-2021 03:05:00 9.3 C 94 % 8.39 C
39 30-12-2021 03:10:00 9.2 C 95 % 8.44 C
40 30-12-2021 03:15:00 9.1 C 95 % 8.34 C
41 30-12-2021 03:20:00 9.1 C 95 % 8.34 C
42 30-12-2021 03:25:00 9.2 C 96 % 8.6 C
43 30-12-2021 03:30:00 9.3 C 96 % 8.7 C
44 30-12-2021 03:35:00 9.4 C 96 % 8.8 C
45 30-12-2021 03:40:00 9.4 C 96 % 8.8 C
46 30-12-2021 03:45:00 9.4 C 96 % 8.8 C
47 30-12-2021 03:50:00 9.3 C 96 % 8.7 C
48 30-12-2021 03:55:00 9.3 C 96 % 8.7 C
49 30-12-2021 04:00:00 9.2 C 96 % 8.6 C
50 30-12-2021 04:05:00 9.2 C 96 % 8.6 C
Sensor: Nr:Datum:Temp:Feuchte:Taupunkt:
Aussen-T/F 51 30-12-2021 04:10:00 9.2 C 96 % 8.6 C
52 30-12-2021 04:15:00 9.3 C 96 % 8.7 C
53 30-12-2021 04:20:00 9.4 C 96 % 8.8 C
54 30-12-2021 04:25:00 9.7 C 96 % 9.09 C
55 30-12-2021 04:30:00 10.2 C 97 % 9.75 C
56 30-12-2021 04:35:00 10.6 C 97 % 10.14 C
57 30-12-2021 04:40:00 10.7 C 97 % 10.24 C
58 30-12-2021 04:45:00 10.9 C 97 % 10.44 C
59 30-12-2021 04:50:00 11.1 C 97 % 10.64 C
60 30-12-2021 04:55:00 11.2 C 96 % 10.59 C
61 30-12-2021 05:00:00 11.3 C 96 % 10.69 C
62 30-12-2021 05:05:00 11.4 C 96 % 10.79 C
63 30-12-2021 05:10:00 11.6 C 96 % 10.98 C
64 30-12-2021 05:15:00 11.7 C 96 % 11.08 C
65 30-12-2021 05:20:00 11.8 C 96 % 11.18 C
66 30-12-2021 05:25:00 11.9 C 96 % 11.28 C
67 30-12-2021 05:30:00 11.9 C 96 % 11.28 C
68 30-12-2021 05:35:00 12 C 96 % 11.38 C
69 30-12-2021 05:40:00 12 C 96 % 11.38 C
70 30-12-2021 05:45:00 12.1 C 96 % 11.48 C
71 30-12-2021 05:50:00 12.2 C 96 % 11.58 C
72 30-12-2021 05:55:00 12.2 C 96 % 11.58 C
73 30-12-2021 06:00:00 12.3 C 96 % 11.68 C
74 30-12-2021 06:05:00 12.3 C 96 % 11.68 C
75 30-12-2021 06:10:00 12.3 C 96 % 11.68 C
Sensor: Nr:Datum:Temp:Feuchte:Taupunkt:
Aussen-T/F 76 30-12-2021 06:15:00 12.3 C 96 % 11.68 C
77 30-12-2021 06:20:00 12.4 C 96 % 11.78 C
78 30-12-2021 06:25:00 12.5 C 96 % 11.88 C
79 30-12-2021 06:30:00 12.7 C 96 % 12.08 C
80 30-12-2021 06:35:00 12.8 C 96 % 12.18 C
81 30-12-2021 06:40:00 12.9 C 95 % 12.12 C
82 30-12-2021 06:45:00 13 C 95 % 12.22 C
83 30-12-2021 06:50:00 13.2 C 95 % 12.42 C
84 30-12-2021 06:55:00 13.3 C 95 % 12.52 C
85 30-12-2021 07:00:00 13.3 C 94 % 12.36 C
86 30-12-2021 07:05:00 13.4 C 94 % 12.45 C
87 30-12-2021 07:10:00 13.5 C 94 % 12.55 C
88 30-12-2021 07:15:00 13.6 C 94 % 12.65 C
89 30-12-2021 07:20:00 13.5 C 94 % 12.55 C
90 30-12-2021 07:25:00 13.6 C 94 % 12.65 C
91 30-12-2021 07:30:00 13.6 C 94 % 12.65 C
92 30-12-2021 07:35:00 13.7 C 93 % 12.59 C
93 30-12-2021 07:40:00 13.7 C 93 % 12.59 C
94 30-12-2021 07:45:00 13.7 C 93 % 12.59 C
95 30-12-2021 07:50:00 13.7 C 93 % 12.59 C
96 30-12-2021 07:55:00 13.7 C 93 % 12.59 C
97 30-12-2021 08:00:00 13.7 C 93 % 12.59 C
98 30-12-2021 08:05:00 13.7 C 93 % 12.59 C
99 30-12-2021 08:10:00 13.7 C 94 % 12.75 C
100 30-12-2021 08:15:00 13.8 C 93 % 12.69 C
Sensor: Nr:Datum:Temp:Feuchte:Taupunkt:
Aussen-T/F 101 30-12-2021 08:20:00 13.8 C 93 % 12.69 C
102 30-12-2021 08:25:00 13.8 C 93 % 12.69 C
103 30-12-2021 08:30:00 13.7 C 93 % 12.59 C
104 30-12-2021 08:35:00 13.8 C 93 % 12.69 C
105 30-12-2021 08:40:00 13.8 C 93 % 12.69 C
106 30-12-2021 08:45:00 13.7 C 93 % 12.59 C
107 30-12-2021 08:50:00 13.8 C 93 % 12.69 C
108 30-12-2021 08:55:00 13.8 C 93 % 12.69 C
109 30-12-2021 09:00:00 13.8 C 93 % 12.69 C
110 30-12-2021 09:05:00 13.8 C 93 % 12.69 C
111 30-12-2021 09:10:00 13.9 C 93 % 12.79 C
112 30-12-2021 09:15:00 13.9 C 93 % 12.79 C
113 30-12-2021 09:20:00 14.1 C 93 % 12.99 C
114 30-12-2021 09:25:00 14.1 C 93 % 12.99 C
115 30-12-2021 09:30:00 14.1 C 93 % 12.99 C
116 30-12-2021 09:35:00 14.1 C 93 % 12.99 C
117 30-12-2021 09:40:00 14.2 C 93 % 13.08 C
118 30-12-2021 09:45:00 14.2 C 93 % 13.08 C
119 30-12-2021 09:50:00 14.3 C 93 % 13.18 C
120 30-12-2021 09:55:00 14.3 C 92 % 13.02 C
121 30-12-2021 10:00:00 14.4 C 92 % 13.12 C
122 30-12-2021 10:05:00 14.4 C 92 % 13.12 C
123 30-12-2021 10:10:00 14.4 C 92 % 13.12 C
124 30-12-2021 10:15:00 14.4 C 92 % 13.12 C
125 30-12-2021 10:20:00 14.4 C 92 % 13.12 C
Sensor: Nr:Datum:Temp:Feuchte:Taupunkt:
Aussen-T/F 126 30-12-2021 10:25:00 14.6 C 92 % 13.32 C
127 30-12-2021 10:30:00 14.6 C 92 % 13.32 C
128 30-12-2021 10:35:00 14.7 C 92 % 13.41 C
129 30-12-2021 10:40:00 14.8 C 91 % 13.35 C
130 30-12-2021 10:45:00 14.8 C 91 % 13.35 C
131 30-12-2021 10:50:00 14.9 C 92 % 13.61 C
132 30-12-2021 10:55:00 15 C 91 % 13.54 C
133 30-12-2021 11:00:00 15.1 C 91 % 13.64 C
134 30-12-2021 11:05:00 15.1 C 90 % 13.47 C
135 30-12-2021 11:10:00 15.2 C 90 % 13.57 C
136 30-12-2021 11:15:00 15.2 C 90 % 13.57 C
137 30-12-2021 11:20:00 15.2 C 90 % 13.57 C
138 30-12-2021 11:25:00 15.2 C 89 % 13.4 C
139 30-12-2021 11:30:00 15.2 C 89 % 13.4 C
140 30-12-2021 11:35:00 15.2 C 89 % 13.4 C
141 30-12-2021 11:40:00 15.3 C 89 % 13.5 C
142 30-12-2021 11:45:00 15.3 C 89 % 13.5 C
143 30-12-2021 11:50:00 15.3 C 89 % 13.5 C
144 30-12-2021 11:55:00 15.3 C 89 % 13.5 C
145 30-12-2021 12:00:00 15.3 C 89 % 13.5 C
146 30-12-2021 12:05:00 15.3 C 89 % 13.5 C
147 30-12-2021 12:10:00 15.4 C 89 % 13.6 C
148 30-12-2021 12:15:00 15.5 C 89 % 13.7 C
149 30-12-2021 12:20:00 15.5 C 88 % 13.52 C
150 30-12-2021 12:25:00 15.5 C 88 % 13.52 C
Sensor: Nr:Datum:Temp:Feuchte:Taupunkt:
Aussen-T/F 151 30-12-2021 12:30:00 15.5 C 88 % 13.52 C
152 30-12-2021 12:35:00 15.4 C 89 % 13.6 C
153 30-12-2021 12:40:00 15.3 C 89 % 13.5 C
154 30-12-2021 12:45:00 15.3 C 89 % 13.5 C
155 30-12-2021 12:50:00 15.2 C 90 % 13.57 C
156 30-12-2021 12:55:00 15.2 C 91 % 13.74 C
157 30-12-2021 13:00:00 15.1 C 91 % 13.64 C
158 30-12-2021 13:05:00 15 C 92 % 13.71 C
159 30-12-2021 13:10:00 14.9 C 91 % 13.44 C
160 30-12-2021 13:15:00 14.9 C 91 % 13.44 C
161 30-12-2021 13:20:00 14.9 C 91 % 13.44 C
162 30-12-2021 13:25:00 14.9 C 90 % 13.28 C
163 30-12-2021 13:30:00 15.1 C 90 % 13.47 C
164 30-12-2021 13:35:00 15.2 C 89 % 13.4 C
165 30-12-2021 13:40:00 15.2 C 88 % 13.23 C
166 30-12-2021 13:45:00 15.3 C 88 % 13.33 C
167 30-12-2021 13:50:00 15.3 C 88 % 13.33 C
168 30-12-2021 13:55:00 15.3 C 88 % 13.33 C
169 30-12-2021 14:00:00 15.3 C 88 % 13.33 C
170 30-12-2021 14:05:00 15.2 C 88 % 13.23 C
171 30-12-2021 14:10:00 15.1 C 89 % 13.3 C
172 30-12-2021 14:15:00 15 C 90 % 13.37 C
173 30-12-2021 14:20:00 14.8 C 91 % 13.35 C
174 30-12-2021 14:25:00 14.7 C 91 % 13.25 C
175 30-12-2021 14:30:00 14.6 C 92 % 13.32 C
Sensor: Nr:Datum:Temp:Feuchte:Taupunkt:
Aussen-T/F 176 30-12-2021 14:35:00 14.6 C 92 % 13.32 C
177 30-12-2021 14:40:00 14.5 C 92 % 13.22 C
178 30-12-2021 14:45:00 14.4 C 92 % 13.12 C
179 30-12-2021 14:50:00 14.4 C 92 % 13.12 C
180 30-12-2021 14:55:00 14.3 C 93 % 13.18 C
181 30-12-2021 15:00:00 14.3 C 93 % 13.18 C
182 30-12-2021 15:05:00 14.3 C 93 % 13.18 C
183 30-12-2021 15:10:00 14.2 C 93 % 13.08 C
184 30-12-2021 15:15:00 14.1 C 93 % 12.99 C
185 30-12-2021 15:20:00 14.1 C 93 % 12.99 C
186 30-12-2021 15:25:00 14.1 C 93 % 12.99 C
187 30-12-2021 15:30:00 14.1 C 94 % 13.15 C
188 30-12-2021 15:35:00 14 C 94 % 13.05 C
189 30-12-2021 15:40:00 14 C 94 % 13.05 C
190 30-12-2021 15:45:00 13.9 C 94 % 12.95 C
191 30-12-2021 15:50:00 13.9 C 94 % 12.95 C
192 30-12-2021 15:55:00 13.8 C 94 % 12.85 C
193 30-12-2021 16:00:00 13.8 C 94 % 12.85 C
194 30-12-2021 16:05:00 13.7 C 94 % 12.75 C
195 30-12-2021 16:10:00 13.7 C 95 % 12.91 C
196 30-12-2021 16:15:00 13.6 C 95 % 12.81 C
197 30-12-2021 16:20:00 13.6 C 95 % 12.81 C
198 30-12-2021 16:25:00 13.5 C 95 % 12.72 C
199 30-12-2021 16:30:00 13.4 C 95 % 12.62 C
200 30-12-2021 16:35:00 13.4 C 95 % 12.62 C
Sensor: Nr:Datum:Temp:Feuchte:Taupunkt:
Aussen-T/F 201 30-12-2021 16:40:00 13.3 C 95 % 12.52 C
202 30-12-2021 16:45:00 13.2 C 95 % 12.42 C
203 30-12-2021 16:50:00 13.2 C 95 % 12.42 C
204 30-12-2021 16:55:00 13.2 C 95 % 12.42 C
205 30-12-2021 17:00:00 13.2 C 95 % 12.42 C
206 30-12-2021 17:05:00 13.2 C 95 % 12.42 C
207 30-12-2021 17:10:00 13.2 C 95 % 12.42 C
208 30-12-2021 17:15:00 13.2 C 95 % 12.42 C
209 30-12-2021 17:20:00 13.2 C 95 % 12.42 C
210 30-12-2021 17:25:00 13.2 C 95 % 12.42 C
211 30-12-2021 17:30:00 13.2 C 95 % 12.42 C
212 30-12-2021 17:35:00 13.2 C 95 % 12.42 C
213 30-12-2021 17:40:00 13.2 C 95 % 12.42 C
214 30-12-2021 17:45:00 13.2 C 95 % 12.42 C
215 30-12-2021 17:50:00 13.2 C 95 % 12.42 C
216 30-12-2021 17:55:00 13.2 C 95 % 12.42 C
217 30-12-2021 18:00:00 13.2 C 95 % 12.42 C
218 30-12-2021 18:05:00 13.2 C 95 % 12.42 C
219 30-12-2021 18:10:00 13.2 C 94 % 12.26 C
220 30-12-2021 18:15:00 13.3 C 94 % 12.36 C
221 30-12-2021 18:20:00 13.3 C 94 % 12.36 C
222 30-12-2021 18:25:00 13.3 C 94 % 12.36 C
223 30-12-2021 18:30:00 13.4 C 93 % 12.29 C
224 30-12-2021 18:35:00 13.4 C 93 % 12.29 C
225 30-12-2021 18:40:00 13.4 C 93 % 12.29 C
Sensor: Nr:Datum:Temp:Feuchte:Taupunkt:
Aussen-T/F 226 30-12-2021 18:45:00 13.6 C 93 % 12.49 C
227 30-12-2021 18:50:00 13.6 C 93 % 12.49 C
228 30-12-2021 18:55:00 13.6 C 92 % 12.33 C
229 30-12-2021 19:00:00 13.6 C 92 % 12.33 C
230 30-12-2021 19:05:00 13.7 C 92 % 12.42 C
231 30-12-2021 19:10:00 13.7 C 92 % 12.42 C
232 30-12-2021 19:15:00 13.7 C 91 % 12.26 C
233 30-12-2021 19:20:00 13.7 C 91 % 12.26 C
234 30-12-2021 19:25:00 13.8 C 91 % 12.36 C
235 30-12-2021 19:30:00 13.8 C 91 % 12.36 C
236 30-12-2021 19:35:00 13.8 C 91 % 12.36 C
237 30-12-2021 19:40:00 13.8 C 91 % 12.36 C
238 30-12-2021 19:45:00 13.8 C 91 % 12.36 C
239 30-12-2021 19:50:00 13.8 C 91 % 12.36 C
240 30-12-2021 19:55:00 13.8 C 91 % 12.36 C
241 30-12-2021 20:00:00 13.8 C 91 % 12.36 C
242 30-12-2021 20:05:00 13.7 C 91 % 12.26 C
243 30-12-2021 20:10:00 13.7 C 91 % 12.26 C
244 30-12-2021 20:15:00 13.7 C 91 % 12.26 C
245 30-12-2021 20:20:00 13.7 C 91 % 12.26 C
246 30-12-2021 20:25:00 13.8 C 91 % 12.36 C
247 30-12-2021 20:30:00 13.8 C 90 % 12.19 C
248 30-12-2021 20:35:00 13.8 C 90 % 12.19 C
249 30-12-2021 20:40:00 13.8 C 90 % 12.19 C
250 30-12-2021 20:45:00 13.9 C 90 % 12.29 C
Sensor: Nr:Datum:Temp:Feuchte:Taupunkt:
Aussen-T/F 251 30-12-2021 20:50:00 13.9 C 90 % 12.29 C
252 30-12-2021 20:55:00 13.9 C 90 % 12.29 C
253 30-12-2021 21:00:00 13.9 C 90 % 12.29 C
254 30-12-2021 21:05:00 13.9 C 90 % 12.29 C
255 30-12-2021 21:10:00 13.9 C 90 % 12.29 C
256 30-12-2021 21:15:00 13.9 C 90 % 12.29 C
257 30-12-2021 21:20:00 13.9 C 90 % 12.29 C
258 30-12-2021 21:25:00 13.9 C 90 % 12.29 C
259 30-12-2021 21:30:00 13.9 C 90 % 12.29 C
260 30-12-2021 21:35:00 13.8 C 91 % 12.36 C
261 30-12-2021 21:40:00 13.8 C 91 % 12.36 C
262 30-12-2021 21:45:00 13.8 C 91 % 12.36 C
263 30-12-2021 21:50:00 13.8 C 91 % 12.36 C
264 30-12-2021 21:55:00 13.8 C 91 % 12.36 C
265 30-12-2021 22:00:00 13.8 C 91 % 12.36 C
266 30-12-2021 22:05:00 13.9 C 91 % 12.46 C
267 30-12-2021 22:10:00 13.8 C 91 % 12.36 C
268 30-12-2021 22:15:00 13.8 C 91 % 12.36 C
269 30-12-2021 22:20:00 13.8 C 91 % 12.36 C
270 30-12-2021 22:25:00 13.8 C 90 % 12.19 C
271 30-12-2021 22:30:00 13.8 C 91 % 12.36 C
272 30-12-2021 22:35:00 13.7 C 91 % 12.26 C
273 30-12-2021 22:40:00 13.7 C 91 % 12.26 C
274 30-12-2021 22:45:00 13.8 C 91 % 12.36 C
275 30-12-2021 22:50:00 13.8 C 91 % 12.36 C
Sensor: Nr:Datum:Temp:Feuchte:Taupunkt:
Aussen-T/F 276 30-12-2021 22:55:00 13.8 C 90 % 12.19 C
277 30-12-2021 23:00:00 13.8 C 90 % 12.19 C
278 30-12-2021 23:05:00 13.8 C 91 % 12.36 C
279 30-12-2021 23:10:00 13.8 C 91 % 12.36 C
280 30-12-2021 23:15:00 13.8 C 91 % 12.36 C
281 30-12-2021 23:20:00 13.8 C 91 % 12.36 C
282 30-12-2021 23:25:00 13.7 C 91 % 12.26 C
283 30-12-2021 23:30:00 13.7 C 91 % 12.26 C
284 30-12-2021 23:35:00 13.6 C 91 % 12.16 C
285 30-12-2021 23:40:00 13.6 C 91 % 12.16 C
286 30-12-2021 23:45:00 13.6 C 92 % 12.33 C
287 30-12-2021 23:50:00 13.5 C 92 % 12.23 C
288 30-12-2021 23:55:00 13.4 C 92 % 12.13 C

Legende:
   Min
   Max


Maximal/Minimal-Werte vom 30.12.2021 - 30.12.2021

Sensor Min Max Avg
Temp
(Aussen-T/F)
9.1 °C
30-12-2021  03:15:00
15.5 °C
30-12-2021  12:15:00
13.13 °C
Feuchte
(Aussen-T/F)
88 %
30-12-2021  12:20:00
97 %
30-12-2021  04:30:00
92.92 %
Taupunkt
(Aussen-T/F)
8.34 C
30-12-2021  03:15:00
13.74 C
30-12-2021  12:55:00
11.97 C

Die Daten stammen von einer Davis Vantage Pro 2 Wetter-Station und werden unter Linux mit der Software wview2wettercgi und aufbereitet. Alle Angaben erfolgen ohne Gewähr für ihre Vollständigkeit oder Richtigkeit.
Kontakt: Rainer Krienke krienke@uni-koblenz.de . Meine Webseiten an der Uni Koblenz oder privat.
Version: $Revision: 0.78 $